createdAt,value
2018-11-27T00:00:14.085Z,32.90
2018-11-27T00:02:42.361Z,33.40
2018-11-27T00:05:10.624Z,33.40
2018-11-27T00:07:38.972Z,32.63
2018-11-27T00:10:09.568Z,30.17
2018-11-27T00:12:37.817Z,33.50
2018-11-27T00:15:09.305Z,31.87
2018-11-27T00:17:37.618Z,30.37
2018-11-27T00:22:45.268Z,30.60
2018-11-27T00:25:14.587Z,31.17
2018-11-27T00:27:43.039Z,34.50
2018-11-27T00:30:13.253Z,34.53
2018-11-27T00:32:41.554Z,31.40
2018-11-27T00:35:11.918Z,35.40
2018-11-27T00:37:40.125Z,34.87
2018-11-27T00:40:12.480Z,31.77
2018-11-27T00:42:40.792Z,33.37
2018-11-27T00:45:10.287Z,40.17
2018-11-27T00:47:38.567Z,33.30
2018-11-27T00:50:09.924Z,34.80
2018-11-27T00:52:38.699Z,34.10
2018-11-27T00:55:08.333Z,34.87
2018-11-27T00:57:36.638Z,33.53
2018-11-27T01:00:08.547Z,33.50
2018-11-27T01:02:36.849Z,31.03
2018-11-27T01:05:05.925Z,33.37
2018-11-27T01:07:34.175Z,32.37
2018-11-27T01:10:02.759Z,31.97
2018-11-27T01:12:30.967Z,30.93
2018-11-27T01:14:59.236Z,32.23
2018-11-27T01:17:27.475Z,33.70
2018-11-27T01:19:55.760Z,29.80
2018-11-27T01:22:23.961Z,33.80
2018-11-27T01:24:52.274Z,28.10
2018-11-27T01:27:20.540Z,29.83
2018-11-27T01:29:48.865Z,32.57
2018-11-27T01:32:17.242Z,32.10
2018-11-27T01:34:45.611Z,29.83
2018-11-27T01:37:13.852Z,30.73
2018-11-27T01:39:42.123Z,30.50
2018-11-27T01:42:10.389Z,32.03
2018-11-27T01:44:38.620Z,34.23
2018-11-27T01:47:06.907Z,30.07
2018-11-27T01:49:35.137Z,31.53
2018-11-27T02:06:47.394Z,32.77
2018-11-27T03:05:26.317Z,23.37
2018-11-27T04:44:00.011Z,24.13
2018-11-27T06:02:52.682Z,28.20
2018-11-27T06:24:10.663Z,24.80
2018-11-27T06:26:40.417Z,27.77
2018-11-27T06:40:31.117Z,65.17
2018-11-27T06:43:08.126Z,53.97
2018-11-27T06:45:37.145Z,52.30
2018-11-27T06:48:08.311Z,52.73
2018-11-27T06:50:37.696Z,53.53
2018-11-27T06:55:50.541Z,42.70
2018-11-27T06:58:19.420Z,33.73
2018-11-27T07:00:47.927Z,24.37
2018-11-27T07:03:16.411Z,33.23
2018-11-27T07:05:44.855Z,34.30
2018-11-27T07:08:13.319Z,29.43
2018-11-27T07:10:43.305Z,26.97
2018-11-27T07:13:18.467Z,25.67
2018-11-27T07:15:47.592Z,24.93
2018-11-27T07:18:16.175Z,23.17
2018-11-27T07:20:44.719Z,25.93
2018-11-27T07:23:13.178Z,24.60
2018-11-27T07:25:41.626Z,25.80
2018-11-27T07:28:10.157Z,24.83
2018-11-27T07:30:40.054Z,26.70
2018-11-27T07:33:08.623Z,24.63
2018-11-27T07:35:37.303Z,25.17
2018-11-27T07:38:06.264Z,23.37
2018-11-27T07:40:34.836Z,22.53
2018-11-27T07:43:09.015Z,23.40
2018-11-27T07:45:37.656Z,22.90
2018-11-27T07:48:07.102Z,21.23
2018-11-27T07:50:35.584Z,21.17
2018-11-27T07:53:03.832Z,22.17
2018-11-27T07:55:32.090Z,23.03
2018-11-27T07:58:00.328Z,21.90
2018-11-27T08:00:28.532Z,22.47
2018-11-27T08:02:57.716Z,18.10
2018-11-27T08:05:31.677Z,22.00
2018-11-27T08:07:59.842Z,22.63
2018-11-27T08:10:29.066Z,23.60
2018-11-27T08:12:57.240Z,22.47
2018-11-27T08:15:26.565Z,22.97
2018-11-27T08:17:54.795Z,20.10
2018-11-27T08:20:25.817Z,24.10
2018-11-27T08:22:54.018Z,23.97
2018-11-27T08:25:22.164Z,23.60
2018-11-27T08:27:50.302Z,23.60
2018-11-27T08:30:19.287Z,24.60
2018-11-27T08:32:47.604Z,22.30
2018-11-27T08:35:20.890Z,23.13
2018-11-27T08:37:50.027Z,23.63
2018-11-27T08:40:19.325Z,21.40
2018-11-27T08:42:47.506Z,22.20
2018-11-27T08:45:16.705Z,22.07
2018-11-27T08:47:45.218Z,24.17
2018-11-27T08:50:14.259Z,20.70
2018-11-27T08:52:46.745Z,20.83
2018-11-27T08:55:12.698Z,26.73
2018-11-27T08:57:42.004Z,23.40
2018-11-27T09:00:21.855Z,22.63
2018-11-27T09:02:50.045Z,25.00
2018-11-27T09:05:18.269Z,24.27
2018-11-27T09:07:46.766Z,24.13
2018-11-27T09:10:18.960Z,22.23
2018-11-27T09:12:47.151Z,21.67
2018-11-27T09:15:16.268Z,21.93
2018-11-27T09:18:06.609Z,23.40
2018-11-27T09:20:34.826Z,21.03
2018-11-27T09:23:03.013Z,21.17
2018-11-27T09:25:31.253Z,21.53
2018-11-27T09:27:59.424Z,20.00
2018-11-27T09:30:27.608Z,21.63
2018-11-27T09:32:56.410Z,19.40
2018-11-27T09:35:24.680Z,18.73
2018-11-27T09:37:52.883Z,18.67
2018-11-27T09:40:21.479Z,19.40
2018-11-27T09:42:49.882Z,18.77
2018-11-27T09:45:20.885Z,17.10
2018-11-27T09:47:50.168Z,16.13
2018-11-27T09:50:18.414Z,16.37
2018-11-27T09:52:46.606Z,17.97
2018-11-27T09:55:22.440Z,16.30
2018-11-27T09:57:50.601Z,17.70
2018-11-27T10:00:23.706Z,18.17
2018-11-27T10:02:53.009Z,18.10
2018-11-27T10:05:21.222Z,20.27
2018-11-27T10:07:49.418Z,18.77
2018-11-27T10:10:19.949Z,18.10
2018-11-27T10:12:48.163Z,18.67
2018-11-27T10:15:17.235Z,19.57
2018-11-27T10:17:46.590Z,16.50
2018-11-27T10:20:17.778Z,21.17
2018-11-27T10:22:46.006Z,16.53
2018-11-27T10:25:14.213Z,21.30
2018-11-27T10:27:42.653Z,19.23
2018-11-27T10:30:14.682Z,17.17
2018-11-27T10:32:42.897Z,21.00
2018-11-27T10:35:14.189Z,17.27
2018-11-27T10:37:42.405Z,15.73
2018-11-27T10:40:10.624Z,15.83
2018-11-27T10:42:38.816Z,17.93
2018-11-27T10:45:11.066Z,14.70
2018-11-27T10:47:39.347Z,23.77
2018-11-27T10:50:09.837Z,15.17
2018-11-27T10:52:38.643Z,15.67
2018-11-27T10:55:08.858Z,16.57
2018-11-27T10:57:37.026Z,18.00
2018-11-27T11:00:10.253Z,17.17
2018-11-27T11:02:38.437Z,17.13
2018-11-27T11:05:06.960Z,15.90
2018-11-27T11:07:35.134Z,19.93
2018-11-27T11:10:03.368Z,16.37
2018-11-27T11:12:31.542Z,19.07
2018-11-27T11:14:59.759Z,16.60
2018-11-27T11:17:27.961Z,17.37
2018-11-27T11:19:56.195Z,19.50
2018-11-27T11:22:24.403Z,17.20
2018-11-27T11:24:52.554Z,15.57
2018-11-27T11:27:20.747Z,20.03
2018-11-27T11:29:48.936Z,16.00
2018-11-27T11:32:17.088Z,15.43
2018-11-27T11:34:45.279Z,15.27
2018-11-27T11:37:13.503Z,13.67
2018-11-27T11:39:41.654Z,18.80
2018-11-27T11:42:09.836Z,15.33
2018-11-27T11:44:38.026Z,13.33
2018-11-27T11:47:06.456Z,15.93
2018-11-27T11:49:34.665Z,14.77
2018-11-27T11:52:02.822Z,16.03
2018-11-27T11:54:30.994Z,15.87
2018-11-27T11:56:59.154Z,16.20
2018-11-27T11:59:28.857Z,15.63
2018-11-27T12:01:55.557Z,14.40
2018-11-27T12:04:23.769Z,16.07
2018-11-27T12:06:51.938Z,16.70
2018-11-27T12:09:20.112Z,18.07
2018-11-27T12:11:48.345Z,15.40
2018-11-27T12:14:16.532Z,14.50
2018-11-27T12:16:44.721Z,15.77
2018-11-27T12:19:12.906Z,15.37
2018-11-27T12:21:41.051Z,13.57
2018-11-27T12:24:09.254Z,12.80
2018-11-27T12:26:37.416Z,14.23
2018-11-27T12:29:05.881Z,11.30
2018-11-27T12:31:34.063Z,14.83
2018-11-27T12:34:02.243Z,14.70
2018-11-27T12:36:30.432Z,13.57
2018-11-27T12:38:58.657Z,13.43
2018-11-27T12:41:26.837Z,14.20
2018-11-27T12:43:55.046Z,13.90
2018-11-27T12:46:23.314Z,19.63
2018-11-27T12:48:51.953Z,14.63
2018-11-27T12:51:19.886Z,14.03
2018-11-27T12:53:48.056Z,14.13
2018-11-27T12:56:16.345Z,14.70
2018-11-27T12:58:44.542Z,15.70
2018-11-27T13:01:12.686Z,14.70
2018-11-27T13:03:40.926Z,13.37
2018-11-27T13:06:09.097Z,12.67
2018-11-27T13:08:38.472Z,16.17
2018-11-27T13:11:11.394Z,13.00
2018-11-27T13:13:34.889Z,12.63
2018-11-27T13:16:03.154Z,15.13
2018-11-27T13:18:31.345Z,12.00
2018-11-27T13:20:59.543Z,12.87
2018-11-27T13:23:27.730Z,14.50
2018-11-27T13:25:55.906Z,11.13
2018-11-27T13:28:24.105Z,12.37
2018-11-27T13:30:54.426Z,13.70
2018-11-27T13:33:26.299Z,10.67
2018-11-27T13:35:54.554Z,10.67
2018-11-27T13:38:22.731Z,10.97
2018-11-27T13:40:51.457Z,13.10
2018-11-27T13:43:26.420Z,12.73
2018-11-27T13:45:55.238Z,12.37
2018-11-27T13:48:23.486Z,11.93
2018-11-27T13:50:51.691Z,12.80
2018-11-27T13:53:21.839Z,14.07
2018-11-27T13:55:50.298Z,11.97
2018-11-27T13:58:18.745Z,11.40
2018-11-27T14:00:47.246Z,13.37
2018-11-27T14:03:15.710Z,12.33
2018-11-27T14:05:44.226Z,12.00
2018-11-27T14:08:13.018Z,11.77
2018-11-27T14:10:42.736Z,13.00
2018-11-27T14:15:51.240Z,13.83
2018-11-27T14:18:19.712Z,14.00
2018-11-27T14:20:48.895Z,12.37
2018-11-27T14:23:17.604Z,11.63
2018-11-27T14:25:46.583Z,10.43
2018-11-27T14:28:15.009Z,10.23
2018-11-27T14:30:43.842Z,12.30
2018-11-27T14:33:14.100Z,10.30
2018-11-27T14:35:42.703Z,10.57
2018-11-27T14:38:11.321Z,12.47
2018-11-27T14:40:39.886Z,10.47
2018-11-27T14:43:08.469Z,11.13
2018-11-27T14:45:37.092Z,13.60
2018-11-27T14:48:07.857Z,34.30
2018-11-27T14:50:37.433Z,13.67
2018-11-27T14:53:06.364Z,12.63
2018-11-27T14:55:35.727Z,13.27
2018-11-27T14:58:04.454Z,11.37
2018-11-27T15:00:33.096Z,14.40
2018-11-27T15:03:01.760Z,11.50
2018-11-27T15:05:31.622Z,11.23
2018-11-27T15:08:00.228Z,11.03
2018-11-27T15:10:28.949Z,11.90
2018-11-27T15:12:57.575Z,13.20
2018-11-27T15:15:26.079Z,13.47
2018-11-27T15:17:54.864Z,13.30
2018-11-27T15:20:25.869Z,16.70
2018-11-27T15:22:54.493Z,15.10
2018-11-27T15:25:22.954Z,12.17
2018-11-27T15:27:51.759Z,13.37
2018-11-27T15:30:25.401Z,20.50
2018-11-27T15:32:55.492Z,26.53
2018-11-27T15:35:24.382Z,42.37
2018-11-27T15:37:52.985Z,34.93
2018-11-27T15:40:24.637Z,17.20
2018-11-27T15:42:56.241Z,12.97
2018-11-27T15:45:31.125Z,16.50
2018-11-27T15:48:00.533Z,15.40
2018-11-27T15:50:29.065Z,14.77
2018-11-27T15:52:57.894Z,17.00
2018-11-27T15:55:28.978Z,14.80
2018-11-27T15:58:09.442Z,17.13
2018-11-27T16:00:38.567Z,16.33
2018-11-27T16:46:43.817Z,15.70
2018-11-27T17:27:21.623Z,27.53
2018-11-27T17:30:08.381Z,29.27
2018-11-27T17:32:41.964Z,29.17
2018-11-27T17:39:05.654Z,28.17
2018-11-27T17:59:26.167Z,28.73
2018-11-27T18:22:14.466Z,76.27
2018-11-27T18:45:13.305Z,28.73
2018-11-27T19:04:52.672Z,37.07
2018-11-27T19:07:35.215Z,34.90
2018-11-27T19:10:04.516Z,36.10
2018-11-27T19:12:37.178Z,34.13
2018-11-27T19:15:16.480Z,29.87
2018-11-27T19:17:46.685Z,34.40
2018-11-27T19:20:15.609Z,33.63
2018-11-27T19:22:44.641Z,33.07
2018-11-27T19:31:08.829Z,36.37
2018-11-27T19:35:56.372Z,39.67
2018-11-27T19:38:31.918Z,37.90
2018-11-27T19:43:46.946Z,42.83
2018-11-27T19:46:17.389Z,50.80
2018-11-27T19:51:27.536Z,57.20
2018-11-27T19:54:18.218Z,61.70
2018-11-27T19:56:46.449Z,65.40
2018-11-27T19:59:14.713Z,46.47
2018-11-27T20:01:43.097Z,131.03
2018-11-27T20:04:11.345Z,85.53
2018-11-27T20:06:39.614Z,81.60
2018-11-27T20:09:09.037Z,46.00
2018-11-27T20:11:37.464Z,35.50
2018-11-27T20:14:12.335Z,38.83
2018-11-27T20:16:47.113Z,33.07
2018-11-27T20:19:15.325Z,31.30
2018-11-27T20:21:43.546Z,34.33
2018-11-27T20:24:11.798Z,33.97
2018-11-27T20:26:40.003Z,37.47
2018-11-27T20:29:08.222Z,38.40
2018-11-27T20:31:36.397Z,44.33
2018-11-27T20:34:04.866Z,47.63
2018-11-27T20:36:33.134Z,36.07
2018-11-27T20:39:01.364Z,32.27
2018-11-27T20:41:30.377Z,33.00
2018-11-27T20:43:59.449Z,38.40
2018-11-27T20:46:27.759Z,34.00
2018-11-27T20:48:55.993Z,36.83
2018-11-27T20:51:24.260Z,36.33
2018-11-27T20:53:52.522Z,34.27
2018-11-27T20:56:20.981Z,35.23
2018-11-27T20:58:49.750Z,35.03
2018-11-27T21:01:19.351Z,35.73
2018-11-27T21:03:47.695Z,32.97
2018-11-27T21:06:16.154Z,32.60
2018-11-27T21:08:44.502Z,35.33
2018-11-27T21:11:13.000Z,38.90
2018-11-27T21:13:41.445Z,33.63
2018-11-27T21:16:09.875Z,36.17
2018-11-27T21:18:38.129Z,36.97
2018-11-27T21:21:07.188Z,35.33
2018-11-27T21:23:35.481Z,36.10
2018-11-27T21:26:04.731Z,39.17
2018-11-27T21:28:33.802Z,35.40
2018-11-27T21:31:02.335Z,40.63
2018-11-27T21:33:30.741Z,35.87
2018-11-27T21:35:59.070Z,41.47
2018-11-27T21:38:27.466Z,41.67
2018-11-27T21:40:55.725Z,38.60
2018-11-27T21:43:25.018Z,37.73
2018-11-27T21:45:53.337Z,38.03
2018-11-27T21:48:21.682Z,34.90
2018-11-27T21:50:49.986Z,33.13
2018-11-27T21:53:18.200Z,30.80
2018-11-27T21:55:46.447Z,37.07
2018-11-27T21:58:14.610Z,35.20
2018-11-27T22:00:43.026Z,36.93
2018-11-27T22:03:12.014Z,34.60
2018-11-27T22:05:40.182Z,29.43
2018-11-27T22:08:08.697Z,33.40
2018-11-27T22:10:37.213Z,36.07
2018-11-27T22:13:07.078Z,32.13
2018-11-27T22:15:36.420Z,36.33
2018-11-27T22:18:06.047Z,38.03
2018-11-27T22:20:34.266Z,36.27
2018-11-27T22:23:02.467Z,40.77
2018-11-27T22:25:30.710Z,37.17
2018-11-27T22:27:58.875Z,31.07
2018-11-27T22:30:27.056Z,37.33
2018-11-27T22:32:55.573Z,32.57
2018-11-27T22:35:23.772Z,36.80
2018-11-27T22:37:52.001Z,37.97
2018-11-27T22:40:21.391Z,42.43
2018-11-27T22:42:50.130Z,47.23
2018-11-27T22:45:26.636Z,46.03
2018-11-27T22:47:54.889Z,38.03
2018-11-27T22:50:23.106Z,38.50
2018-11-27T22:52:51.300Z,39.33
2018-11-27T22:55:19.563Z,40.23
2018-11-27T22:57:47.761Z,43.33
2018-11-27T23:00:33.643Z,40.23
2018-11-27T23:03:08.505Z,38.37
2018-11-27T23:05:36.722Z,39.80
2018-11-27T23:08:04.935Z,38.87
2018-11-27T23:10:34.598Z,36.73
2018-11-27T23:13:02.832Z,35.90
2018-11-27T23:15:31.021Z,39.70
2018-11-27T23:17:59.166Z,33.97
2018-11-27T23:20:27.390Z,39.43
2018-11-27T23:22:55.593Z,42.43
2018-11-27T23:25:23.788Z,30.97
2018-11-27T23:27:52.069Z,38.47
2018-11-27T23:30:21.726Z,33.53
2018-11-27T23:32:50.039Z,34.23
2018-11-27T23:35:18.267Z,38.13
2018-11-27T23:37:46.527Z,41.47
2018-11-27T23:40:15.923Z,38.07
2018-11-27T23:42:44.336Z,38.40
2018-11-27T23:45:14.160Z,36.80
2018-11-27T23:47:42.377Z,39.17
2018-11-27T23:50:11.452Z,36.27
2018-11-27T23:52:39.627Z,38.33
2018-11-27T23:55:08.853Z,36.73
2018-11-27T23:57:37.181Z,41.93
